Time;durP1;ratioP1;P1;durP2;ratioP2;P2;SDS_P1;SDS_P2;PMS_P1;PMS_P2;Temp;Humidity;BMP_temperature;BMP_pressure;BME280_temperature;BME280_humidity;BME280_pressure;Samples;Min_cycle;Max_cycle;Signal;HPM_P1;HPM_P2
2022/11/22 00:01:20;;;;;;;58.45;32.47;;;179.60;2252.80;;;;;;6245444;22;20000;-85
2022/11/22 00:03:46;;;;;;;62.05;35.03;;;179.50;2252.80;;;;;;6247107;22;20310;-86
2022/11/22 00:06:12;;;;;;;77.30;39.97;;;179.50;2252.80;;;;;;6245517;22;20004;-85
2022/11/22 00:08:38;;;;;;;60.15;34.63;;;179.40;2252.80;;;;;;6245394;22;20011;-86
2022/11/22 00:11:03;;;;;;;80.95;44.35;;;179.40;2252.80;;;;;;6247173;22;20402;-85
2022/11/22 00:13:29;;;;;;;63.13;38.17;;;179.40;2252.80;;;;;;6245456;22;20008;-85
2022/11/22 00:16:00;;;;;;;201.05;49.00;;;179.50;2252.80;;;;;;6245236;22;20004;-86
2022/11/22 00:18:27;;;;;;;107.22;43.45;;;179.40;2252.80;;;;;;6247931;22;20019;-86
2022/11/22 00:20:52;;;;;;;70.07;34.00;;;179.40;2252.80;;;;;;6250347;22;20082;-86
2022/11/22 00:23:18;;;;;;;58.72;33.45;;;179.40;2252.80;;;;;;6250493;22;20494;-84
2022/11/22 00:25:44;;;;;;;43.25;27.83;;;179.40;2252.80;;;;;;6250195;22;19999;-85
2022/11/22 00:28:10;;;;;;;56.22;28.15;;;179.50;2252.80;;;;;;6250127;22;19999;-86
2022/11/22 00:30:36;;;;;;;97.43;30.73;;;179.30;2252.80;;;;;;6249978;22;20004;-86
2022/11/22 00:33:02;;;;;;;49.17;22.05;;;179.30;2252.80;;;;;;6250447;22;19999;-85
2022/11/22 00:35:28;;;;;;;73.43;36.22;;;179.30;2252.80;;;;;;6250056;22;20467;-86
2022/11/22 00:37:54;;;;;;;61.13;35.10;;;154.50;2252.80;;;;;;6250528;22;20020;-86
2022/11/22 00:40:19;;;;;;;66.53;36.53;;;154.50;2252.80;;;;;;6250296;22;20004;-85
2022/11/22 00:42:45;;;;;;;53.75;35.33;;;154.40;2252.80;;;;;;6249993;22;20049;-84
2022/11/22 00:45:11;;;;;;;63.25;33.17;;;154.40;2252.80;;;;;;6277390;22;20003;-86
2022/11/22 00:47:37;;;;;;;90.65;32.72;;;154.50;2252.80;;;;;;6250281;22;20413;-88
2022/11/22 00:50:04;;;;;;;65.68;27.35;;;154.50;2252.80;;;;;;6250125;22;20427;-86
2022/11/22 00:52:29;;;;;;;50.97;22.38;;;154.50;2252.80;;;;;;6250316;22;20004;-85
2022/11/22 00:54:55;;;;;;;125.07;24.40;;;154.50;2252.80;;;;;;6277732;22;20321;-87
2022/11/22 00:57:22;;;;;;;85.88;31.85;;;154.30;2252.80;;;;;;6250064;22;20364;-86
2022/11/22 00:59:47;;;;;;;80.15;30.70;;;154.30;2252.80;;;;;;6250494;22;19996;-85
2022/11/22 01:02:13;;;;;;;65.85;27.90;;;154.30;2252.80;;;;;;6250301;22;20007;-86
2022/11/22 01:04:39;;;;;;;44.55;25.40;;;154.30;2252.80;;;;;;6249940;22;20003;-84
2022/11/22 01:07:05;;;;;;;65.90;26.83;;;154.40;2252.80;;;;;;6250092;22;20012;-86
2022/11/22 01:09:31;;;;;;;43.40;22.98;;;154.30;2252.80;;;;;;6252225;22;20003;-85
2022/11/22 01:11:57;;;;;;;66.93;22.45;;;154.20;2252.80;;;;;;6251788;22;20000;-86
2022/11/22 01:14:23;;;;;;;59.65;22.70;;;154.10;2252.80;;;;;;6278891;22;20406;-86
2022/11/22 01:16:49;;;;;;;67.90;23.88;;;154.20;2252.80;;;;;;6251186;22;20010;-87
2022/11/22 01:19:15;;;;;;;62.45;25.52;;;154.20;2252.80;;;;;;6278462;22;20461;-86
2022/11/22 01:21:40;;;;;;;31.48;19.05;;;154.10;2252.80;;;;;;6251679;22;20086;-86
2022/11/22 01:24:06;;;;;;;33.50;18.65;;;154.20;2252.80;;;;;;6251837;22;20000;-85
2022/11/22 01:26:33;;;;;;;38.45;19.70;;;154.30;2252.80;;;;;;6251935;22;20008;-88
2022/11/22 01:28:59;;;;;;;29.02;17.73;;;154.30;2252.80;;;;;;6251732;22;20030;-85
2022/11/22 01:31:24;;;;;;;63.08;20.10;;;154.30;2252.80;;;;;;6278667;22;20358;-85
2022/11/22 01:33:50;;;;;;;51.22;19.55;;;154.10;2252.80;;;;;;6250930;22;20011;-85
2022/11/22 01:36:16;;;;;;;42.10;21.92;;;154.10;2252.80;;;;;;6252045;22;20003;-85
2022/11/22 01:38:42;;;;;;;56.10;22.98;;;154.10;2252.80;;;;;;6251686;22;20023;-86
2022/11/22 01:41:07;;;;;;;68.30;23.63;;;154.10;2252.80;;;;;;6279222;22;19999;-87
2022/11/22 01:43:33;;;;;;;165.85;42.38;;;154.10;2252.80;;;;;;6252054;22;19995;-86
2022/11/22 01:46:24;;;;;;;80.65;33.00;;;154.10;2252.80;;;;;;6251414;22;20008;-85
2022/11/22 01:48:56;;;;;;;63.65;27.13;;;154.00;2252.80;;;;;;6225268;22;19996;-85
2022/11/22 01:51:27;;;;;;;109.53;28.90;;;154.10;2252.80;;;;;;6252068;22;20003;-88
2022/11/22 01:53:57;;;;;;;56.08;29.05;;;153.70;2252.80;;;;;;6251441;22;20045;-85
2022/11/22 01:56:24;;;;;;;126.22;60.80;;;153.80;2252.80;;;;;;6278662;22;20054;-85
2022/11/22 01:58:56;;;;;;;96.03;45.92;;;128.90;2252.80;;;;;;6278594;22;20083;-87
2022/11/22 02:01:22;;;;;;;64.32;36.63;;;128.80;2252.80;;;;;;6253325;22;19996;-84
2022/11/22 02:03:50;;;;;;;81.55;35.95;;;153.60;2252.80;;;;;;6255938;22;20004;-85
2022/11/22 02:06:18;;;;;;;64.07;31.48;;;128.90;2252.80;;;;;;6260598;22;20012;-84
2022/11/22 02:08:55;;;;;;;51.78;27.30;;;153.80;2252.80;;;;;;6258203;22;20002;-85
2022/11/22 02:11:22;;;;;;;49.20;26.48;;;153.80;2252.80;;;;;;6255762;22;19999;-85
2022/11/22 02:13:50;;;;;;;67.40;28.85;;;153.80;2252.80;;;;;;6258401;22;20321;-85
2022/11/22 02:16:16;;;;;;;83.72;29.23;;;153.60;2252.80;;;;;;6257036;22;20004;-84
2022/11/22 02:18:42;;;;;;;72.57;29.33;;;128.70;2252.80;;;;;;6254726;22;20381;-84
2022/11/22 02:21:08;;;;;;;82.43;27.52;;;128.60;2252.80;;;;;;6251178;22;20050;-85
2022/11/22 02:24:05;;;;;;;74.32;29.27;;;128.40;2252.80;;;;;;6278658;22;19995;-86
2022/11/22 02:26:31;;;;;;;47.80;23.60;;;128.60;2252.80;;;;;;6251384;22;20011;-86
2022/11/22 02:29:03;;;;;;;56.45;28.60;;;128.90;2252.80;;;;;;6278395;22;20356;-85
2022/11/22 02:31:44;;;;;;;47.93;24.77;;;153.60;2252.80;;;;;;6251947;22;20014;-84
2022/11/22 02:34:11;;;;;;;55.70;27.48;;;153.70;2252.80;;;;;;6251109;22;20004;-86
2022/11/22 02:36:43;;;;;;;45.53;26.05;;;153.60;2252.80;;;;;;6250822;22;20007;-86
2022/11/22 02:39:11;;;;;;;43.05;23.67;;;153.80;2252.80;;;;;;6251412;22;20008;-85
2022/11/22 02:41:38;;;;;;;46.97;24.25;;;153.80;2252.80;;;;;;6249401;22;19995;-87
2022/11/22 02:44:06;;;;;;;46.53;23.35;;;153.80;2252.80;;;;;;6278640;22;20003;-87
2022/11/22 02:46:32;;;;;;;40.75;23.48;;;153.90;2252.80;;;;;;6251531;22;20368;-88
2022/11/22 02:48:58;;;;;;;43.17;23.67;;;153.80;2252.80;;;;;;6251545;22;20302;-88
2022/11/22 02:51:25;;;;;;;44.55;24.63;;;153.90;2252.80;;;;;;6251371;22;20051;-89
2022/11/22 02:53:52;;;;;;;45.53;23.25;;;153.90;2252.80;;;;;;6277996;22;19996;-88
2022/11/22 02:56:19;;;;;;;42.20;21.83;;;153.80;2252.80;;;;;;6251098;22;20008;-87
2022/11/22 02:58:45;;;;;;;47.15;20.65;;;153.80;2252.80;;;;;;6251026;22;20004;-86
2022/11/22 03:01:12;;;;;;;36.78;20.23;;;153.80;2252.80;;;;;;6278391;22;20034;-88
2022/11/22 03:03:38;;;;;;;39.67;21.38;;;153.80;2252.80;;;;;;6251055;22;20414;-87
2022/11/22 03:06:04;;;;;;;44.92;25.40;;;153.70;2252.80;;;;;;6251036;22;20014;-86
2022/11/22 03:08:30;;;;;;;52.50;28.45;;;153.70;2252.80;;;;;;6251138;22;20484;-87
2022/11/22 03:10:59;;;;;;;39.63;23.45;;;153.70;2252.80;;;;;;6250503;22;20000;-89
2022/11/22 03:13:25;;;;;;;39.08;20.40;;;153.60;2252.80;;;;;;6278249;22;20409;-85
2022/11/22 03:15:51;;;;;;;40.40;19.77;;;153.90;2252.80;;;;;;6250575;22;20007;-88
2022/11/22 03:18:17;;;;;;;32.90;18.75;;;153.70;2252.80;;;;;;6251046;22;20329;-87
2022/11/22 03:20:42;;;;;;;40.08;19.33;;;153.70;2252.80;;;;;;6245309;23;20020;-87
2022/11/22 03:23:08;;;;;;;38.90;19.85;;;153.70;2252.80;;;;;;6245783;22;20000;-87
2022/11/22 03:25:37;;;;;;;31.83;18.65;;;153.70;2252.80;;;;;;6245849;22;20011;-87
2022/11/22 03:28:03;;;;;;;40.10;17.10;;;153.60;2252.80;;;;;;6245770;22;20006;-86
2022/11/22 03:30:29;;;;;;;41.47;17.70;;;153.60;2252.80;;;;;;6246854;22;20075;-87
2022/11/22 03:32:55;;;;;;;31.73;17.90;;;128.90;2252.80;;;;;;6246206;23;20308;-87
2022/11/22 03:35:20;;;;;;;30.25;18.20;;;153.60;2252.80;;;;;;6245873;22;20027;-88
2022/11/22 03:37:46;;;;;;;28.73;15.73;;;128.90;2252.80;;;;;;6245527;22;20057;-88
2022/11/22 03:40:12;;;;;;;30.38;17.83;;;128.90;2252.80;;;;;;6245955;22;20003;-88
2022/11/22 03:42:38;;;;;;;29.95;16.30;;;128.90;2252.80;;;;;;6245831;22;20011;-88
2022/11/22 03:45:05;;;;;;;48.03;20.98;;;128.90;2252.80;;;;;;6245445;22;20004;-88
2022/11/22 03:47:31;;;;;;;32.42;16.80;;;128.60;2252.80;;;;;;6245514;22;20010;-87
2022/11/22 03:49:57;;;;;;;29.65;16.35;;;128.70;2252.80;;;;;;6245660;22;20005;-88
2022/11/22 03:52:23;;;;;;;39.20;18.58;;;128.60;2252.80;;;;;;6245373;22;20000;-87
2022/11/22 03:54:48;;;;;;;48.17;24.33;;;128.60;2252.80;;;;;;6245750;22;20014;-89
2022/11/22 03:57:16;;;;;;;52.50;23.23;;;128.60;2252.80;;;;;;6245371;22;20004;-87
2022/11/22 03:59:42;;;;;;;39.97;20.80;;;128.60;2252.80;;;;;;6244879;22;20004;-88
2022/11/22 04:02:08;;;;;;;50.08;23.80;;;128.70;2252.80;;;;;;6245803;22;20000;-88
2022/11/22 04:04:33;;;;;;;41.53;20.38;;;128.80;2252.80;;;;;;6245729;22;20487;-87
2022/11/22 04:06:59;;;;;;;30.00;15.32;;;128.70;2252.80;;;;;;6245251;22;20095;-88
2022/11/22 04:09:25;;;;;;;23.40;14.20;;;128.60;2252.80;;;;;;6245953;22;20036;-87
2022/11/22 04:11:51;;;;;;;37.38;16.35;;;128.60;2252.80;;;;;;6245377;22;20321;-87
2022/11/22 04:17:00;;;;;;;26.05;16.08;;;128.50;2252.80;;;;;;6246732;23;20453;-88
2022/11/22 04:19:26;;;;;;;34.78;19.02;;;128.40;2252.80;;;;;;6245029;22;20012;-89
2022/11/22 04:21:52;;;;;;;30.85;15.88;;;128.40;2252.80;;;;;;6252651;22;20006;-86
2022/11/22 04:27:02;;;;;;;33.97;18.40;;;128.20;2252.80;;;;;;6274078;22;20010;-85
2022/11/22 04:29:28;;;;;;;37.85;17.88;;;128.30;2252.80;;;;;;6273835;22;20017;-87
2022/11/22 04:34:38;;;;;;;25.30;16.50;;;128.30;2252.80;;;;;;6246525;23;20544;-87
2022/11/22 04:37:04;;;;;;;26.95;15.60;;;128.40;2252.80;;;;;;6245225;22;20035;-86
2022/11/22 04:39:30;;;;;;;22.67;14.45;;;128.40;2252.80;;;;;;6245413;22;20004;-86
2022/11/22 04:44:41;;;;;;;34.25;17.90;;;128.20;2252.80;;;;;;6248059;23;20010;-87
2022/11/22 04:47:57;;;;;;;32.08;18.13;;;128.20;2252.80;;;;;;6247292;22;20012;-86
2022/11/22 04:49:58;;;;;;;29.73;18.05;;;128.30;2252.80;;;;;;6247505;22;20079;-87
2022/11/22 04:55:08;;;;;;;80.15;42.70;;;128.20;2252.80;;;;;;6248137;23;20007;-88
2022/11/22 04:57:34;;;;;;;52.20;26.27;;;128.20;2252.80;;;;;;6247113;22;20036;-88
2022/11/22 05:00:00;;;;;;;103.20;47.08;;;128.20;2252.80;;;;;;6247473;22;20039;-88
2022/11/22 05:02:26;;;;;;;105.68;52.80;;;128.20;2252.80;;;;;;6246808;22;20006;-88
2022/11/22 05:04:51;;;;;;;70.80;34.63;;;128.00;2252.80;;;;;;6247332;22;20000;-87
2022/11/22 05:07:17;;;;;;;59.15;25.73;;;128.10;2252.80;;;;;;6247221;22;20058;-88
2022/11/22 05:09:43;;;;;;;45.83;23.35;;;128.00;2252.80;;;;;;6248052;22;19996;-87
2022/11/22 05:12:09;;;;;;;45.53;23.02;;;128.10;2252.80;;;;;;6247340;22;20087;-87
2022/11/22 05:14:34;;;;;;;45.95;23.95;;;128.10;2252.80;;;;;;6247054;22;20437;-89
2022/11/22 05:17:00;;;;;;;42.10;22.67;;;128.10;2252.80;;;;;;6246853;22;20004;-87
2022/11/22 05:19:26;;;;;;;36.03;19.20;;;103.30;2227.20;;;;;;6246850;22;20438;-88
2022/11/22 05:21:52;;;;;;;37.42;20.80;;;128.00;2252.80;;;;;;6246725;22;20004;-87
2022/11/22 05:24:17;;;;;;;40.95;21.05;;;128.00;2252.80;;;;;;6247179;22;19996;-87
2022/11/22 05:26:43;;;;;;;44.42;24.65;;;128.00;2252.80;;;;;;6246872;22;20095;-88
2022/11/22 05:29:10;;;;;;;24.55;14.75;;;103.20;2227.20;;;;;;6246484;22;20081;-88
2022/11/22 05:31:37;;;;;;;29.25;15.90;;;103.30;2227.20;;;;;;6246995;22;20004;-87
2022/11/22 05:34:04;;;;;;;24.63;14.27;;;103.30;2227.20;;;;;;6249824;22;20003;-87
2022/11/22 05:36:35;;;;;;;27.35;14.63;;;103.30;2227.20;;;;;;6249936;22;20079;-86
2022/11/22 05:39:02;;;;;;;29.38;16.48;;;103.30;2227.20;;;;;;6248425;22;20058;-87
2022/11/22 05:41:28;;;;;;;29.42;17.55;;;128.00;2252.80;;;;;;6246681;22;20008;-88
2022/11/22 05:43:55;;;;;;;36.75;17.10;;;103.30;2227.20;;;;;;6246439;22;20027;-88
2022/11/22 05:46:24;;;;;;;37.28;19.13;;;103.30;2227.20;;;;;;6246653;22;20015;-89
2022/11/22 05:48:50;;;;;;;197.35;130.90;;;103.30;2227.20;;;;;;6246128;22;20418;-88
2022/11/22 05:51:18;;;;;;;90.57;65.57;;;103.20;2227.20;;;;;;6246225;22;20007;-87
2022/11/22 05:53:44;;;;;;;45.13;30.50;;;103.10;2227.20;;;;;;6246836;22;20008;-88
2022/11/22 05:56:13;;;;;;;28.67;19.13;;;103.30;2227.20;;;;;;6246789;22;20444;-88
2022/11/22 05:58:39;;;;;;;28.42;16.83;;;103.30;2227.20;;;;;;6246719;22;20091;-88
2022/11/22 06:01:20;;;;;;;29.50;17.40;;;103.30;1920.00;;;;;;6246975;22;20004;-88
2022/11/22 06:03:46;;;;;;;29.30;15.25;;;103.30;2227.20;;;;;;6246492;22;20004;-87
2022/11/22 06:06:13;;;;;;;37.15;22.92;;;103.30;2227.20;;;;;;6246485;22;20008;-88
2022/11/22 06:08:42;;;;;;;39.20;25.83;;;128.00;2252.80;;;;;;6246856;22;20094;-88
2022/11/22 06:11:19;;;;;;;40.10;23.05;;;103.30;2227.20;;;;;;6246219;22;20005;-86
2022/11/22 06:13:47;;;;;;;49.78;29.00;;;128.00;2176.00;;;;;;6245875;22;20004;-86
2022/11/22 06:16:13;;;;;;;37.05;21.90;;;128.00;2252.80;;;;;;6246386;22;20004;-85
2022/11/22 06:18:40;;;;;;;37.00;21.85;;;103.30;2227.20;;;;;;6248360;22;20077;-87
2022/11/22 06:21:10;;;;;;;29.42;17.05;;;103.30;2227.20;;;;;;6251463;22;20003;-86
2022/11/22 06:23:36;;;;;;;33.55;17.65;;;103.20;2227.20;;;;;;6251619;22;20444;-86
2022/11/22 06:26:04;;;;;;;45.78;26.73;;;103.30;2227.20;;;;;;6250998;22;20012;-88
2022/11/22 06:28:32;;;;;;;39.50;21.55;;;128.00;2252.80;;;;;;6251386;22;20003;-87
2022/11/22 06:31:06;;;;;;;52.45;33.28;;;128.00;2252.80;;;;;;6251484;22;20034;-87
2022/11/22 06:33:33;;;;;;;96.40;52.20;;;128.00;2252.80;;;;;;6278043;22;19992;-88
2022/11/22 06:36:19;;;;;;;44.90;26.48;;;128.40;2252.80;;;;;;6251501;22;20008;-87
2022/11/22 06:38:45;;;;;;;37.72;22.40;;;128.00;2252.80;;;;;;6251146;22;19999;-87
2022/11/22 06:41:17;;;;;;;72.50;42.10;;;128.30;2252.80;;;;;;6251257;22;19996;-88
2022/11/22 06:43:45;;;;;;;52.67;31.67;;;103.30;2227.20;;;;;;6251536;22;20000;-87
2022/11/22 06:46:12;;;;;;;77.15;37.97;;;103.10;2124.80;;;;;;6250912;22;20019;-88
2022/11/22 06:48:39;;;;;;;79.72;39.63;;;103.10;2227.20;;;;;;6251380;22;20003;-89
2022/11/22 06:51:11;;;;;;;63.58;32.88;;;102.90;2227.20;;;;;;6251532;22;19996;-86
2022/11/22 06:53:37;;;;;;;69.60;32.28;;;102.60;2227.20;;;;;;6251071;22;20004;-89
2022/11/22 06:56:14;;;;;;;72.85;40.05;;;102.50;2227.20;;;;;;6251214;22;20421;-88
2022/11/22 06:58:40;;;;;;;66.10;36.22;;;102.60;2227.20;;;;;;6251008;22;20004;-87
2022/11/22 07:01:17;;;;;;;72.00;35.33;;;102.80;2227.20;;;;;;6250478;22;19999;-86
2022/11/22 07:03:43;;;;;;;67.53;37.67;;;102.80;2227.20;;;;;;6251390;22;19999;-88
2022/11/22 07:06:11;;;;;;;71.68;39.20;;;102.90;2227.20;;;;;;6250721;22;20429;-87
2022/11/22 07:08:37;;;;;;;85.65;46.45;;;103.10;2227.20;;;;;;6278003;22;19992;-87
2022/11/22 07:11:08;;;;;;;78.22;41.50;;;102.90;2227.20;;;;;;6251111;22;20074;-87
2022/11/22 07:13:35;;;;;;;101.85;54.63;;;103.20;2227.20;;;;;;6251029;22;19996;-87
2022/11/22 07:16:03;;;;;;;100.22;52.42;;;103.00;2227.20;;;;;;6277775;22;20034;-87
2022/11/22 07:18:29;;;;;;;105.45;53.35;;;103.20;2227.20;;;;;;6250715;22;20008;-88
2022/11/22 07:21:02;;;;;;;98.18;53.63;;;103.30;2048.00;;;;;;6277443;22;20002;-88
2022/11/22 07:23:29;;;;;;;87.20;49.85;;;128.00;2252.80;;;;;;6250947;22;20086;-88
2022/11/22 07:25:55;;;;;;;86.18;50.88;;;128.10;2252.80;;;;;;6251071;22;19996;-89
2022/11/22 07:28:20;;;;;;;114.38;64.97;;;128.30;2252.80;;;;;;6250618;22;20007;-87
2022/11/22 07:30:46;;;;;;;94.13;56.53;;;128.40;2252.80;;;;;;6250674;22;20083;-84
2022/11/22 07:33:12;;;;;;;63.45;38.15;;;128.40;2252.80;;;;;;6250594;22;20000;-85
2022/11/22 07:35:38;;;;;;;106.18;57.08;;;128.60;2252.80;;;;;;6250404;22;20444;-86
2022/11/22 07:38:04;;;;;;;106.28;58.60;;;128.40;2252.80;;;;;;6250350;22;20429;-87
2022/11/22 07:40:30;;;;;;;119.38;68.50;;;128.20;2252.80;;;;;;6250833;22;20003;-84
2022/11/22 07:42:56;;;;;;;88.72;51.70;;;128.60;2252.80;;;;;;6250260;22;20004;-86
2022/11/22 07:45:22;;;;;;;81.50;51.13;;;128.70;2252.80;;;;;;6250019;22;20000;-85
2022/11/22 07:47:47;;;;;;;87.32;56.03;;;128.80;2176.00;;;;;;6250533;22;20415;-85
2022/11/22 07:50:14;;;;;;;93.30;55.33;;;128.90;2252.80;;;;;;6248905;22;20042;-83
2022/11/22 07:52:39;;;;;;;93.00;60.05;;;128.90;2201.60;;;;;;6250551;22;20325;-85
2022/11/22 07:55:06;;;;;;;83.15;52.28;;;128.90;2252.80;;;;;;6250440;22;20000;-84
2022/11/22 07:57:32;;;;;;;78.47;45.67;;;154.00;2252.80;;;;;;6250401;22;20007;-84
2022/11/22 07:59:58;;;;;;;77.78;47.70;;;153.80;2252.80;;;;;;6250396;22;20006;-86
2022/11/22 08:02:25;;;;;;;69.05;43.53;;;153.70;2252.80;;;;;;6250276;22;20004;-86
2022/11/22 08:04:51;;;;;;;66.95;43.03;;;153.70;2252.80;;;;;;6250253;22;20003;-86
2022/11/22 08:07:17;;;;;;;70.18;43.15;;;153.80;2252.80;;;;;;6250454;22;20023;-86
2022/11/22 08:09:43;;;;;;;72.40;44.05;;;153.90;2252.80;;;;;;6249864;22;20452;-84
2022/11/22 08:12:09;;;;;;;92.68;55.13;;;154.00;2252.80;;;;;;6250357;22;20101;-86
2022/11/22 08:14:35;;;;;;;78.10;43.45;;;154.00;2252.80;;;;;;6250167;22;20010;-86
2022/11/22 08:17:01;;;;;;;74.53;44.58;;;154.00;2252.80;;;;;;6249627;22;20030;-85
2022/11/22 08:19:27;;;;;;;54.90;33.35;;;154.00;2252.80;;;;;;6275990;22;20068;-86
2022/11/22 08:21:53;;;;;;;46.42;29.58;;;153.90;2252.80;;;;;;6250510;22;20011;-86
2022/11/22 08:24:19;;;;;;;47.92;30.35;;;153.80;2252.80;;;;;;6249969;22;20329;-85
2022/11/22 08:26:45;;;;;;;54.40;35.35;;;154.00;2252.80;;;;;;6250468;22;20430;-85
2022/11/22 08:29:11;;;;;;;45.10;30.27;;;154.10;2252.80;;;;;;6250428;22;20088;-86
2022/11/22 08:31:38;;;;;;;44.35;29.75;;;179.70;2252.80;;;;;;6250072;22;20083;-85
2022/11/22 08:34:04;;;;;;;62.75;39.80;;;154.20;2252.80;;;;;;6250470;22;20004;-86
2022/11/22 08:36:31;;;;;;;76.22;45.00;;;154.40;2252.80;;;;;;6250338;22;20007;-87
2022/11/22 08:38:57;;;;;;;61.15;33.45;;;154.50;2252.80;;;;;;6249673;22;20004;-88
2022/11/22 08:41:23;;;;;;;47.35;30.77;;;179.20;2252.80;;;;;;6250364;22;20057;-86
2022/11/22 08:43:50;;;;;;;53.63;35.40;;;179.20;2252.80;;;;;;6250271;22;20137;-84
2022/11/22 08:46:17;;;;;;;53.78;34.13;;;179.30;2252.80;;;;;;6249692;22;20008;-85
2022/11/22 08:48:43;;;;;;;48.42;30.73;;;179.30;2252.80;;;;;;6277086;22;20004;-84
2022/11/22 08:51:11;;;;;;;52.38;35.38;;;179.30;2252.80;;;;;;6247196;22;20092;-87
2022/11/22 08:53:38;;;;;;;47.30;30.92;;;179.30;2252.80;;;;;;6249438;22;20003;-81
2022/11/22 08:56:06;;;;;;;45.00;31.42;;;179.30;2252.80;;;;;;6276505;22;19996;-83
2022/11/22 08:58:32;;;;;;;50.35;34.67;;;179.40;2252.80;;;;;;6249670;22;20049;-83
2022/11/22 09:01:05;;;;;;;55.30;38.50;;;179.50;2252.80;;;;;;6276193;22;20000;-83
2022/11/22 09:03:31;;;;;;;;;;;179.60;2252.80;;;;;;6250505;22;20003;-88
2022/11/22 09:06:06;;;;;;;47.85;30.02;;;179.70;2252.80;;;;;;6249824;22;19910;-85
2022/11/22 09:08:32;;;;;;;48.20;33.60;;;179.70;2252.80;;;;;;6250010;22;20083;-85
2022/11/22 09:11:03;;;;;;;46.42;33.80;;;179.50;2252.80;;;;;;6250128;22;20010;-86
2022/11/22 09:13:29;;;;;;;50.28;32.95;;;179.80;2252.80;;;;;;6249785;22;20029;-83
2022/11/22 09:16:04;;;;;;;43.35;32.53;;;179.90;2252.80;;;;;;6249315;22;20050;-85
2022/11/22 09:18:30;;;;;;;49.75;31.85;;;179.90;2252.80;;;;;;6249463;22;20440;-85
2022/11/22 09:21:01;;;;;;;51.00;33.00;;;179.90;2252.80;;;;;;6249869;22;20000;-85
2022/11/22 09:23:27;;;;;;;45.83;32.55;;;180.00;2252.80;;;;;;6249631;22;20004;-84
2022/11/22 09:26:04;;;;;;;44.33;34.00;;;180.00;2252.80;;;;;;6248747;22;20090;-82
2022/11/22 09:28:30;;;;;;;61.30;44.47;;;180.00;2252.80;;;;;;6249747;22;20003;-84
2022/11/22 09:31:08;;;;;;;67.93;51.30;;;180.00;2252.80;;;;;;6278085;22;20324;-83
2022/11/22 09:33:36;;;;;;;66.82;48.67;;;180.00;2252.80;;;;;;6251656;22;20082;-83
2022/11/22 09:36:03;;;;;;;67.55;49.40;;;180.10;2252.80;;;;;;6251279;22;20038;-86
2022/11/22 09:38:30;;;;;;;57.00;41.05;;;180.10;2252.80;;;;;;6251627;22;20014;-86
2022/11/22 09:40:57;;;;;;;54.30;38.65;;;204.80;2252.80;;;;;;6251555;22;20090;-86
2022/11/22 09:43:25;;;;;;;49.20;36.50;;;204.80;2252.80;;;;;;6252185;22;20443;-87
2022/11/22 09:45:56;;;;;;;76.80;53.88;;;204.80;2252.80;;;;;;6252217;22;20002;-87
2022/11/22 09:48:28;;;;;;;44.35;28.40;;;204.80;2252.80;;;;;;6251404;22;20000;-85
2022/11/22 09:51:08;;;;;;;37.28;25.92;;;204.80;2252.80;;;;;;6252298;22;20429;-86
2022/11/22 09:53:51;;;;;;;46.88;34.78;;;204.90;2252.80;;;;;;6251568;22;20360;-83
2022/11/22 09:56:18;;;;;;;45.93;32.03;;;204.90;2252.80;;;;;;6251381;22;20375;-84
2022/11/22 09:59:08;;;;;;;31.10;21.15;;;204.90;2252.80;;;;;;6251618;22;20004;-84
2022/11/22 10:02:02;;;;;;;23.77;17.17;;;205.00;1868.80;;;;;;6251382;22;20004;-84
2022/11/22 10:04:31;;;;;;;;;;;205.00;2252.80;;;;;;6251982;22;20026;-84
2022/11/22 10:07:12;;;;;;;29.33;20.63;;;205.00;2252.80;;;;;;6251261;22;19907;-83
2022/11/22 10:09:48;;;;;;;28.13;21.70;;;205.00;2252.80;;;;;;6250867;22;20008;-83
2022/11/22 10:12:46;;;;;;;33.28;25.55;;;205.00;2252.80;;;;;;6251642;22;19999;-85
2022/11/22 10:15:34;;;;;;;35.17;26.13;;;205.00;2252.80;;;;;;6251509;22;19996;-86
2022/11/22 10:18:05;;;;;;;36.38;25.85;;;205.00;2252.80;;;;;;6250980;22;20099;-86
2022/11/22 10:20:34;;;;;;;28.88;20.73;;;205.00;2252.80;;;;;;6250898;22;20020;-86
2022/11/22 10:23:01;;;;;;;29.95;21.38;;;205.00;2252.80;;;;;;6251365;22;20076;-85
2022/11/22 10:25:42;;;;;;;38.90;26.02;;;205.10;2150.40;;;;;;6251606;22;19996;-85
2022/11/22 10:28:45;;;;;;;36.22;25.02;;;205.10;2252.80;;;;;;6251388;22;20031;-84
2022/11/22 10:31:13;;;;;;;34.60;23.67;;;205.20;2252.80;;;;;;6230900;22;20003;-83
2022/11/22 10:33:48;;;;;;;39.45;30.30;;;205.20;2252.80;;;;;;6251402;22;20007;-84
2022/11/22 10:36:27;;;;;;;41.75;31.10;;;205.20;2252.80;;;;;;6278331;22;19999;-83
2022/11/22 10:39:11;;;;;;;33.28;23.67;;;205.30;2252.80;;;;;;6250961;22;19992;-84
2022/11/22 10:41:38;;;;;;;32.10;23.38;;;205.30;2252.80;;;;;;6251178;22;20000;-84
2022/11/22 10:44:15;;;;;;;43.13;30.15;;;205.40;2252.80;;;;;;6251091;22;20000;-83
2022/11/22 10:47:08;;;;;;;51.00;36.28;;;205.40;2252.80;;;;;;6251399;22;20394;-85
2022/11/22 10:49:40;;;;;;;48.40;33.17;;;205.40;2252.80;;;;;;6251295;22;20080;-84
2022/11/22 10:52:08;;;;;;;41.28;24.67;;;205.40;2252.80;;;;;;6250900;22;20006;-84
2022/11/22 10:54:43;;;;;;;51.95;29.75;;;205.40;2252.80;;;;;;6251234;22;20326;-85
2022/11/22 10:57:18;;;;;;;33.88;22.67;;;205.40;2252.80;;;;;;6252041;22;20003;-90
2022/11/22 11:00:05;;;;;;;78.05;44.45;;;205.40;2252.80;;;;;;6251806;22;19996;-89
2022/11/22 11:03:12;;;;;;;143.20;75.80;;;205.50;2252.80;;;;;;6252391;22;20015;-92
2022/11/22 11:05:57;;;;;;;97.38;57.30;;;205.50;2252.80;;;;;;6252305;22;20010;-88
2022/11/22 11:08:36;;;;;;;91.00;52.88;;;205.60;2252.80;;;;;;6251967;22;20031;-86
2022/11/22 11:11:02;;;;;;;58.50;36.47;;;205.60;2252.80;;;;;;6251432;22;19999;-85
2022/11/22 11:13:33;;;;;;;51.05;33.65;;;205.60;2252.80;;;;;;6251509;22;20389;-86
2022/11/22 11:16:02;;;;;;;52.22;32.88;;;205.70;1996.80;;;;;;6252052;22;20083;-87
2022/11/22 11:18:32;;;;;;;43.67;27.65;;;205.70;2252.80;;;;;;6251230;22;20046;-86
2022/11/22 11:20:57;;;;;;;65.00;41.55;;;230.40;2252.80;;;;;;6278857;22;19998;-86
2022/11/22 11:23:23;;;;;;;56.33;35.03;;;230.40;2252.80;;;;;;6251719;22;20004;-86
2022/11/22 11:25:51;;;;;;;67.22;41.63;;;230.40;2252.80;;;;;;6251099;22;20004;-86
2022/11/22 11:28:22;;;;;;;81.28;47.60;;;230.40;2252.80;;;;;;6251372;22;20080;-87
2022/11/22 11:31:05;;;;;;;65.80;35.75;;;230.40;2252.80;;;;;;6251376;22;20000;-87
2022/11/22 11:33:37;;;;;;;72.85;42.42;;;230.50;2252.80;;;;;;6251132;22;20000;-88
2022/11/22 11:36:06;;;;;;;62.33;41.45;;;230.50;2252.80;;;;;;6277936;22;20436;-87
2022/11/22 11:38:35;;;;;;;59.53;42.80;;;230.50;2252.80;;;;;;6251274;22;19996;-87
2022/11/22 11:41:30;;;;;;;58.60;40.47;;;230.50;2252.80;;;;;;6250550;22;20075;-82
2022/11/22 11:44:01;;;;;;;68.20;44.45;;;230.60;2252.80;;;;;;6249901;22;19995;-81
2022/11/22 11:46:35;;;;;;;71.95;51.42;;;230.60;2252.80;;;;;;6277164;22;20070;-80
2022/11/22 11:49:14;;;;;;;60.53;40.80;;;230.70;2252.80;;;;;;6276547;22;20006;-85
2022/11/22 11:51:43;;;;;;;62.80;41.28;;;230.70;2252.80;;;;;;6278113;22;19999;-85
2022/11/22 11:54:14;;;;;;;64.50;43.20;;;230.80;2252.80;;;;;;6251381;22;20106;-86
2022/11/22 11:57:18;;;;;;;69.93;45.65;;;230.80;2252.80;;;;;;6251141;22;20015;-85
2022/11/22 11:59:47;;;;;;;59.20;39.15;;;230.90;2252.80;;;;;;6189904;22;20004;-88
2022/11/22 12:02:21;;;;;;;58.13;39.40;;;230.90;2252.80;;;;;;6276779;22;20006;-81
2022/11/22 12:04:53;;;;;;;40.45;28.92;;;230.90;2252.80;;;;;;6250413;22;20418;-82
2022/11/22 12:07:26;;;;;;;35.07;25.67;;;230.90;2252.80;;;;;;6249444;22;20318;-78
2022/11/22 12:09:54;;;;;;;41.15;29.35;;;230.90;2252.80;;;;;;6276555;22;20263;-82
2022/11/22 12:12:26;;;;;;;40.20;28.67;;;231.00;2252.80;;;;;;6249364;22;20329;-81
2022/11/22 12:15:14;;;;;;;32.92;25.40;;;231.00;2252.80;;;;;;6249776;22;20489;-82
2022/11/22 12:17:53;;;;;;;50.92;37.88;;;231.10;2252.80;;;;;;6251397;22;20008;-83
2022/11/22 12:20:29;;;;;;;73.65;48.05;;;231.10;2252.80;;;;;;6249464;22;20043;-84
2022/11/22 12:23:13;;;;;;;78.07;49.75;;;231.10;2252.80;;;;;;6249881;22;20004;-86